»·PEaware :: N28462 L52-L88

N28462 :: L52-L88

FLIGHT INFORMATION

Flight Status: Arrived
Operator: Privately registered:
United States
More flights under this callsign
Pilot: Alex B. (17696)
Aircraft: Unknown
(AA5B)
More flights by this aircraft type
Origin: L52 Oceano Co
United States
Destination: L88 New Cuyama
United States
More flights between these airports :: More routes between these airports
Route:
File this flight plan on PilotEdge
Remarks:
Altitude:
(Current/Filed)
0ft
Speed:
(Current/Filed)
115kts
Departed: 28-Dec-17 10:25 PM
Arrived: 28-Dec-17 10:50 PM
Distance/Time
Traveled:
47nm/0:24
Distance/Time
To Go:
Arrived

Flight Plot

Page will automatically refresh every two minutes.


Map Options




Map Legend


Flown Route
Filed Route
Departure Airport
Arrival Airport
Navaid (VOR, NDB)
Fix

Horizontal Profiles

Position Reports

Time Latitude Longitude Heading Altitude Ground
Speed
28-Dec-17 22:14 35.102465 -120.622783 34 15ft 0kts
28-Dec-17 22:15 35.102465 -120.622783 34 15ft 0kts
28-Dec-17 22:16 35.102465 -120.622783 34 15ft 0kts
28-Dec-17 22:17 35.102477 -120.622773 30 15ft 0kts
28-Dec-17 22:18 35.102477 -120.622773 30 15ft 0kts
28-Dec-17 22:19 35.102477 -120.622773 30 15ft 0kts
28-Dec-17 22:20 35.102477 -120.622773 30 15ft 0kts
28-Dec-17 22:21 35.102477 -120.622773 30 15ft 0kts
28-Dec-17 22:22 35.102477 -120.622773 30 15ft 0kts
28-Dec-17 22:23 35.102477 -120.622773 30 15ft 0kts
28-Dec-17 22:24 35.102477 -120.622773 30 15ft 0kts
28-Dec-17 22:25 35.102477 -120.622773 30 15ft 0kts
28-Dec-17 22:26 35.102477 -120.622773 30 15ft 0kts
28-Dec-17 22:27 35.102822 -120.623351 300 14ft 15kts
28-Dec-17 22:28 35.103540 -120.625145 205 12ft 0kts
28-Dec-17 22:29 35.103540 -120.625146 205 12ft 0kts
28-Dec-17 22:30 35.103540 -120.625146 205 12ft 0kts
28-Dec-17 22:31 35.097866 -120.616906 126 438ft 80kts
28-Dec-17 22:32 35.084705 -120.593649 115 1963ft 87kts
28-Dec-17 22:33 35.079107 -120.563925 95 3154ft 110kts
28-Dec-17 22:34 35.075337 -120.524903 94 3644ft 117kts
28-Dec-17 22:35 35.074594 -120.482648 91 3383ft 123kts
28-Dec-17 22:36 35.070946 -120.442723 98 3531ft 117kts
28-Dec-17 22:37 35.065642 -120.403137 94 3610ft 118kts
28-Dec-17 22:38 35.061912 -120.363155 98 3609ft 121kts
28-Dec-17 22:39 35.054182 -120.325554 107 3570ft 125kts
28-Dec-17 22:40 35.041222 -120.286701 114 3525ft 120kts
28-Dec-17 22:41 35.031146 -120.248932 104 3530ft 116kts
28-Dec-17 22:42 35.022885 -120.210360 103 3553ft 117kts
28-Dec-17 22:43 35.014604 -120.171954 101 3642ft 113kts
28-Dec-17 22:44 35.009263 -120.134325 96 3855ft 110kts
28-Dec-17 22:45 35.006642 -120.097653 89 4526ft 109kts
28-Dec-17 22:46 35.003735 -120.059996 94 5163ft 111kts
28-Dec-17 22:47 34.998761 -120.021142 98 5536ft 126kts
28-Dec-17 22:48 34.991891 -119.976387 98 5469ft 141kts
28-Dec-17 22:49 34.986126 -119.928998 95 5103ft 139kts
28-Dec-17 22:50 34.980420 -119.882204 96 4773ft 139kts
28-Dec-17 22:51 34.974669 -119.836774 95 4261ft 134kts
28-Dec-17 22:52 34.969079 -119.792103 96 3637ft 127kts
28-Dec-17 22:53 34.963646 -119.752243 105 3027ft 106kts
28-Dec-17 22:54 34.953949 -119.721674 108 2510ft 77kts
28-Dec-17 22:55 34.946669 -119.702113 112 2314ft 60kts
28-Dec-17 22:56 34.940214 -119.686147 106 2172ft 15kts
28-Dec-17 22:57 34.941586 -119.689588 295 2159ft 22kts
28-Dec-17 22:58 34.943282 -119.691235 198 2152ft 0kts
28-Dec-17 22:59 34.943283 -119.691235 198 2152ft 0kts
28-Dec-17 23:00 34.943283 -119.691235 198 2152ft 0kts
28-Dec-17 23:01 34.943283 -119.691235 198 2152ft 0kts
28-Dec-17 23:02 34.943283 -119.691235 198 2152ft 0kts
28-Dec-17 23:03 34.943283 -119.691235 198 2152ft 0kts
28-Dec-17 23:04 34.943283 -119.691235 198 2152ft 0kts

Navigation Log

Ident Type
Flight plan parsing failed, navigation log unavailable